Time;durP1;ratioP1;P1;durP2;ratioP2;P2;SDS_P1;SDS_P2;PMS_P1;PMS_P2;Temp;Humidity;BMP_temperature;BMP_pressure;BME280_temperature;BME280_humidity;BME280_pressure;Samples;Min_cycle;Max_cycle;Signal;HPM_P1;HPM_P2
2023/01/25 00:01:16;;;;;;;29.33;13.15;;;;;;;2.09;70.39;103644.47;4985706;28;20506;-58
2023/01/25 00:03:41;;;;;;;28.05;13.23;;;;;;;2.08;70.57;103632.31;4987129;28;20498;-55
2023/01/25 00:06:09;;;;;;;31.30;13.73;;;;;;;2.09;70.60;103638.41;4980502;28;20073;-57
2023/01/25 00:08:34;;;;;;;27.48;12.48;;;;;;;2.11;70.54;103631.53;4991459;28;20405;-56
2023/01/25 00:11:00;;;;;;;25.10;13.55;;;;;;;2.09;70.44;103630.63;5017204;23;20030;-62
2023/01/25 00:13:26;;;;;;;21.35;9.98;;;;;;;2.07;70.60;103634.88;4986946;28;20041;-60
2023/01/25 00:15:52;;;;;;;25.50;12.10;;;;;;;2.07;70.12;103635.75;4991575;28;20028;-58
2023/01/25 00:18:17;;;;;;;23.38;11.75;;;;;;;2.09;70.24;103628.00;4987886;28;20481;-62
2023/01/25 00:20:43;;;;;;;24.55;13.02;;;;;;;2.08;70.49;103629.72;4984887;28;20038;-59
2023/01/25 00:23:08;;;;;;;29.40;12.75;;;;;;;2.08;70.31;103627.13;4977496;28;20058;-58
2023/01/25 00:25:34;;;;;;;19.67;10.35;;;;;;;2.08;70.14;103621.06;4993608;28;20026;-61
2023/01/25 00:27:59;;;;;;;24.23;10.80;;;;;;;2.07;70.28;103617.56;4992468;28;20393;-58
2023/01/25 00:30:24;;;;;;;19.42;9.55;;;;;;;2.09;70.30;103620.22;4991695;28;20030;-59
2023/01/25 00:33:02;;;;;;;19.63;10.10;;;;;;;2.05;70.29;103611.44;4989870;28;20062;-63
2023/01/25 00:35:34;;;;;;;24.77;11.02;;;;;;;2.08;70.50;103608.06;4988766;28;20058;-62
2023/01/25 00:38:02;;;;;;;21.30;9.38;;;;;;;2.08;70.25;103610.66;4991501;28;20081;-61
2023/01/25 00:40:27;;;;;;;16.38;8.50;;;;;;;2.11;70.16;103613.34;4983231;28;20026;-58
2023/01/25 00:42:53;;;;;;;18.90;9.18;;;;;;;2.10;69.85;103609.84;5004109;28;20084;-59
2023/01/25 00:45:18;;;;;;;16.75;9.50;;;;;;;2.10;69.94;103609.84;4982871;28;20041;-61
2023/01/25 00:47:44;;;;;;;15.95;8.25;;;;;;;2.12;69.98;103605.56;4988932;28;20034;-58
2023/01/25 00:50:10;;;;;;;19.10;8.93;;;;;;;2.11;69.72;103603.81;4975613;28;20031;-61
2023/01/25 00:52:35;;;;;;;15.05;7.82;;;;;;;2.14;69.81;103605.59;4987877;28;20030;-59
2023/01/25 00:55:01;;;;;;;16.90;8.43;;;;;;;2.12;69.73;103602.97;4989438;28;20041;-61
2023/01/25 00:57:27;;;;;;;14.60;8.00;;;;;;;2.12;69.74;103599.50;4989933;28;20041;-58
2023/01/25 00:59:52;;;;;;;15.70;7.22;;;;;;;2.12;69.78;103600.38;4988238;28;20034;-58
2023/01/25 01:02:18;;;;;;;19.25;8.75;;;;;;;2.15;69.77;103599.56;4987647;28;20038;-59
2023/01/25 01:04:43;;;;;;;13.43;7.20;;;;;;;2.15;69.46;103603.91;4972625;28;20087;-59
2023/01/25 01:07:12;;;;;;;15.00;7.43;;;;;;;2.13;69.60;103598.66;4978131;28;20069;-60
2023/01/25 01:09:37;;;;;;;11.90;6.60;;;;;;;2.10;69.47;103594.25;4995160;28;20108;-59
2023/01/25 01:12:03;;;;;;;14.27;7.90;;;;;;;2.08;69.42;103590.75;4990572;28;20116;-62
2023/01/25 01:14:28;;;;;;;13.65;7.43;;;;;;;2.09;69.81;103599.44;4987043;28;20057;-60
2023/01/25 01:16:54;;;;;;;12.77;8.02;;;;;;;2.09;69.73;103592.50;4983910;28;20757;-59
2023/01/25 01:19:19;;;;;;;15.43;7.60;;;;;;;2.10;69.49;103590.81;4985201;28;20409;-60
2023/01/25 01:21:45;;;;;;;14.85;7.68;;;;;;;2.07;69.93;103594.19;4969132;28;20405;-62
2023/01/25 01:24:10;;;;;;;16.15;8.70;;;;;;;2.06;69.89;103591.56;4984707;28;20026;-59
2023/01/25 01:26:36;;;;;;;16.58;7.97;;;;;;;2.05;69.86;103602.78;4989082;28;20022;-59
2023/01/25 01:29:02;;;;;;;14.98;6.97;;;;;;;2.07;69.80;103594.19;4993323;28;20030;-61
2023/01/25 01:31:27;;;;;;;12.90;7.10;;;;;;;2.07;69.53;103596.78;4980601;28;20037;-58
2023/01/25 01:33:55;;;;;;;12.50;8.00;;;;;;;2.08;69.43;103595.09;4977430;28;20160;-62
2023/01/25 01:36:23;;;;;;;13.63;7.18;;;;;;;2.09;69.77;103592.50;4972760;28;20033;-58
2023/01/25 01:38:49;;;;;;;13.90;7.85;;;;;;;2.12;69.87;103583.91;4987681;28;20039;-61
2023/01/25 01:41:15;;;;;;;17.92;8.85;;;;;;;2.10;69.82;103578.69;4978439;28;20437;-62
2023/01/25 01:43:40;;;;;;;12.27;6.75;;;;;;;2.10;69.92;103568.28;4978239;28;20052;-61
2023/01/25 01:46:12;;;;;;;15.77;7.38;;;;;;;2.11;69.76;103566.59;4964849;28;20068;-61
2023/01/25 01:48:53;;;;;;;17.67;7.97;;;;;;;2.10;69.77;103570.88;4980652;28;20042;-59
2023/01/25 01:51:22;;;;;;;15.75;8.10;;;;;;;2.12;70.15;103569.22;4976595;28;28672;-60
2023/01/25 01:54:10;;;;;;;15.38;8.85;;;;;;;2.13;70.23;103568.38;4984435;28;20035;-60
2023/01/25 01:56:55;;;;;;;18.33;7.93;;;;;;;2.15;70.26;103564.94;4980561;28;20149;-60
2023/01/25 01:59:27;;;;;;;14.13;7.88;;;;;;;2.17;70.19;103563.25;4991121;28;20037;-58
2023/01/25 02:01:53;;;;;;;15.35;7.93;;;;;;;2.18;69.98;103562.41;4986945;28;20113;-58
2023/01/25 02:04:21;;;;;;;11.18;5.80;;;;;;;2.19;69.98;103561.56;4984512;28;20030;-61
2023/01/25 02:07:05;;;;;;;19.50;9.23;;;;;;;2.18;70.15;103554.63;4989047;28;20113;-59
2023/01/25 02:09:34;;;;;;;19.23;9.52;;;;;;;2.19;70.49;103561.56;4990382;28;20022;-60
2023/01/25 02:12:00;;;;;;;22.63;10.95;;;;;;;2.21;70.42;103560.75;5003570;28;20038;-58
2023/01/25 02:14:28;;;;;;;19.60;8.98;;;;;;;2.24;70.44;103559.94;4979241;28;20575;-60
2023/01/25 02:16:54;;;;;;;23.23;10.63;;;;;;;2.21;70.43;103555.56;4991114;28;20485;-62
2023/01/25 02:19:43;;;;;;;16.60;8.98;;;;;;;2.21;70.61;103558.16;4987157;28;20030;-58
2023/01/25 02:22:15;;;;;;;18.25;9.25;;;;;;;2.23;70.65;103563.38;4993061;28;20026;-62
2023/01/25 02:24:49;;;;;;;18.15;9.13;;;;;;;2.20;70.29;103552.91;4990092;28;20395;-60
2023/01/25 02:27:16;;;;;;;16.70;7.68;;;;;;;2.17;70.28;103553.72;4989768;28;20030;-58
2023/01/25 02:29:43;;;;;;;18.83;8.63;;;;;;;2.16;70.47;103548.50;4985249;28;20036;-61
2023/01/25 02:32:08;;;;;;;16.42;9.68;;;;;;;2.17;70.51;103547.66;4982503;28;21160;-61
2023/01/25 02:34:35;;;;;;;22.20;10.18;;;;;;;2.11;70.64;103541.47;4992928;28;20036;-60
2023/01/25 02:37:00;;;;;;;19.58;8.57;;;;;;;2.06;70.81;103539.63;4989580;28;20041;-59
2023/01/25 02:39:27;;;;;;;19.98;9.23;;;;;;;2.06;70.76;103535.28;4987393;28;20046;-61
2023/01/25 02:41:52;;;;;;;16.38;7.82;;;;;;;2.08;70.77;103544.00;4985650;28;20104;-58
2023/01/25 02:44:25;;;;;;;24.20;10.05;;;;;;;2.06;70.63;103534.41;4987915;28;20062;-57
2023/01/25 02:46:51;;;;;;;18.50;9.68;;;;;;;2.07;70.63;103537.03;4990645;28;20020;-59
2023/01/25 02:49:17;;;;;;;15.63;7.03;;;;;;;2.12;70.54;103534.53;4985900;28;20036;-60
2023/01/25 02:51:48;;;;;;;12.98;6.28;;;;;;;2.13;70.42;103537.19;4982017;28;20054;-57
2023/01/25 02:54:15;;;;;;;16.30;7.57;;;;;;;2.15;69.90;103529.41;4977532;28;20437;-59
2023/01/25 02:56:41;;;;;;;15.73;8.40;;;;;;;2.16;70.16;103535.50;4985685;28;20030;-60
2023/01/25 02:59:09;;;;;;;19.33;9.63;;;;;;;2.15;70.29;103519.03;4985678;28;20048;-59
2023/01/25 03:01:36;;;;;;;20.00;9.30;;;;;;;2.16;70.39;103523.38;4989078;28;20022;-58
2023/01/25 03:04:02;;;;;;;18.25;9.32;;;;;;;2.14;70.38;103522.47;4985542;28;20141;-61
2023/01/25 03:06:28;;;;;;;15.85;7.93;;;;;;;2.17;70.55;103522.53;4992453;28;20029;-61
2023/01/25 03:08:53;;;;;;;16.38;8.68;;;;;;;2.16;70.49;103519.94;4990551;28;20033;-61
2023/01/25 03:11:19;;;;;;;20.23;9.82;;;;;;;2.12;70.60;103512.06;4986123;28;20038;-61
2023/01/25 03:13:44;;;;;;;16.15;7.13;;;;;;;2.12;70.34;103509.47;4985712;28;20030;-62
2023/01/25 03:16:11;;;;;;;15.95;7.32;;;;;;;2.09;70.60;103493.81;4984772;28;20453;-64
2023/01/25 03:18:38;;;;;;;15.60;8.73;;;;;;;2.08;70.72;103496.38;4986490;28;20116;-60
2023/01/25 03:21:12;;;;;;;15.85;8.05;;;;;;;2.10;70.72;103490.34;4985559;28;20038;-61
2023/01/25 03:23:38;;;;;;;13.75;7.15;;;;;;;2.11;70.58;103491.25;4987069;28;20041;-60
2023/01/25 03:26:15;;;;;;;14.52;7.00;;;;;;;2.03;70.52;103491.09;4985490;28;20039;-62
2023/01/25 03:28:42;;;;;;;14.52;7.68;;;;;;;2.03;70.67;103485.00;4991456;28;20029;-58
2023/01/25 03:31:10;;;;;;;15.15;8.35;;;;;;;2.01;70.45;103489.28;4975763;28;20061;-62
2023/01/25 03:33:35;;;;;;;16.95;8.13;;;;;;;2.03;70.46;103487.59;4982915;28;20129;-62
2023/01/25 03:36:01;;;;;;;16.55;7.55;;;;;;;2.04;70.65;103489.34;4983359;28;20055;-60
2023/01/25 03:38:27;;;;;;;18.10;8.85;;;;;;;2.01;70.62;103474.59;4989147;28;20027;-59
2023/01/25 03:40:53;;;;;;;14.00;7.15;;;;;;;2.02;70.55;103473.75;4988563;28;20040;-59
2023/01/25 03:43:19;;;;;;;20.98;10.52;;;;;;;2.05;70.67;103471.19;4988267;28;20038;-57
2023/01/25 03:45:45;;;;;;;16.75;7.93;;;;;;;2.07;70.63;103459.13;4991098;28;20122;-59
2023/01/25 03:48:11;;;;;;;14.98;7.82;;;;;;;2.05;70.54;103455.59;4986484;28;20085;-57
2023/01/25 03:50:36;;;;;;;17.80;9.07;;;;;;;2.06;70.69;103454.75;4986852;28;20039;-62
2023/01/25 03:53:25;;;;;;;15.75;7.88;;;;;;;2.10;70.42;103453.13;4986405;28;20383;-58
2023/01/25 03:55:51;;;;;;;14.02;7.57;;;;;;;2.10;70.13;103448.78;4990842;28;20040;-57
2023/01/25 03:58:16;;;;;;;13.48;7.50;;;;;;;2.10;70.40;103446.19;4988234;28;20497;-62
2023/01/25 04:00:41;;;;;;;16.02;8.60;;;;;;;2.10;70.21;103443.59;4989948;28;20520;-58
2023/01/25 04:03:07;;;;;;;13.73;7.70;;;;;;;2.10;70.00;103435.81;4991853;28;20041;-60
2023/01/25 04:05:32;;;;;;;14.73;7.75;;;;;;;2.11;70.21;103436.69;4983836;28;20086;-60
2023/01/25 04:07:58;;;;;;;11.15;6.18;;;;;;;2.11;69.92;103432.38;4983886;28;20145;-57
2023/01/25 04:10:23;;;;;;;13.18;6.68;;;;;;;2.09;69.84;103430.59;4995433;28;20088;-56
2023/01/25 04:12:49;;;;;;;11.88;7.53;;;;;;;2.07;70.11;103425.34;4995249;28;20034;-60
2023/01/25 04:15:14;;;;;;;16.30;8.60;;;;;;;2.07;70.24;103427.94;4991261;28;20046;-59
2023/01/25 04:17:40;;;;;;;15.68;8.68;;;;;;;2.07;70.20;103427.94;4989010;28;20019;-56
2023/01/25 04:20:06;;;;;;;14.20;7.85;;;;;;;2.05;70.43;103424.44;4993603;28;21530;-60
2023/01/25 04:22:31;;;;;;;14.40;7.03;;;;;;;2.02;70.33;103424.41;4997403;28;20117;-61
2023/01/25 04:24:56;;;;;;;13.98;7.15;;;;;;;2.04;70.48;103422.69;4987029;28;20379;-57
2023/01/25 04:27:22;;;;;;;15.43;7.95;;;;;;;2.07;70.48;103427.94;4992040;28;20440;-58
2023/01/25 04:29:47;;;;;;;16.02;8.13;;;;;;;2.06;70.05;103423.59;4983269;28;20449;-61
2023/01/25 04:32:13;;;;;;;16.52;8.52;;;;;;;2.08;70.11;103428.84;4986588;28;20044;-56
2023/01/25 04:34:38;;;;;;;15.30;7.80;;;;;;;2.08;69.96;103419.31;4991009;28;20033;-56
2023/01/25 04:37:04;;;;;;;13.52;7.47;;;;;;;2.09;69.82;103415.88;4990616;28;20034;-58
2023/01/25 04:39:29;;;;;;;12.60;6.75;;;;;;;2.07;69.68;103420.16;4984945;28;20030;-55
2023/01/25 04:41:54;;;;;;;14.05;6.68;;;;;;;2.02;69.38;103414.00;4987096;28;20031;-57
2023/01/25 04:44:20;;;;;;;11.90;6.00;;;;;;;1.99;69.81;103413.94;4987049;28;20030;-59
2023/01/25 04:46:45;;;;;;;11.85;5.97;;;;;;;2.02;69.76;103413.13;4987954;28;20030;-56
2023/01/25 04:49:11;;;;;;;12.05;5.68;;;;;;;2.00;69.89;103407.00;4990948;28;20030;-58
2023/01/25 04:51:36;;;;;;;12.00;5.78;;;;;;;2.01;70.06;103399.25;4987019;28;20045;-58
2023/01/25 04:54:02;;;;;;;11.50;5.38;;;;;;;2.03;70.04;103394.97;4990324;28;20124;-59
2023/01/25 04:56:27;;;;;;;11.75;5.60;;;;;;;2.03;70.14;103389.78;4989779;28;20022;-55
2023/01/25 04:58:52;;;;;;;12.07;7.28;;;;;;;2.03;70.07;103394.97;4985921;28;20038;-57
2023/01/25 05:01:18;;;;;;;10.52;5.45;;;;;;;2.03;69.87;103386.28;4983637;28;20034;-57
2023/01/25 05:03:43;;;;;;;14.98;8.18;;;;;;;2.02;70.10;103393.22;4986189;28;20100;-60
2023/01/25 05:06:09;;;;;;;9.80;5.13;;;;;;;1.99;69.99;103382.78;4989648;28;20058;-62
2023/01/25 05:08:34;;;;;;;12.45;7.22;;;;;;;2.02;69.74;103384.53;4989506;28;20374;-63
2023/01/25 05:11:00;;;;;;;14.38;7.35;;;;;;;2.03;69.65;103379.41;4990270;28;20104;-60
2023/01/25 05:13:25;;;;;;;11.73;6.50;;;;;;;2.04;69.73;103390.66;4982709;28;20034;-61
2023/01/25 05:15:51;;;;;;;13.98;7.07;;;;;;;1.99;69.72;103385.38;4974163;28;20038;-63
2023/01/25 05:18:16;;;;;;;12.10;6.05;;;;;;;1.91;69.79;103379.13;4980884;28;20453;-59
2023/01/25 05:20:41;;;;;;;13.98;6.68;;;;;;;1.93;70.15;103377.44;4985841;28;20026;-61
2023/01/25 05:23:07;;;;;;;10.05;6.35;;;;;;;1.91;70.34;103372.22;4969664;28;20042;-57
2023/01/25 05:28:16;;;;;;;10.85;6.00;;;;;;;1.90;69.75;103369.56;4983969;28;20516;-62
2023/01/25 05:30:42;;;;;;;10.80;5.70;;;;;;;1.88;69.98;103366.09;4977221;28;20027;-58
2023/01/25 05:33:07;;;;;;;11.57;6.22;;;;;;;1.88;69.81;103363.50;4969459;28;22245;-60
2023/01/25 05:35:33;;;;;;;15.07;8.43;;;;;;;1.87;70.29;103354.81;4970115;28;20137;-62
2023/01/25 05:37:58;;;;;;;14.90;7.47;;;;;;;1.85;70.45;103355.63;4975771;28;20030;-58
2023/01/25 05:40:25;;;;;;;14.27;7.57;;;;;;;1.86;70.19;103347.00;4982491;28;20058;-59
2023/01/25 05:42:55;;;;;;;14.10;7.35;;;;;;;1.88;70.15;103361.75;4984154;28;20033;-59
2023/01/25 05:45:20;;;;;;;13.57;7.22;;;;;;;1.85;70.51;103353.91;4981427;28;20430;-58
2023/01/25 05:47:46;;;;;;;13.88;7.00;;;;;;;1.84;70.06;103352.16;4986098;28;20089;-59
2023/01/25 05:50:11;;;;;;;12.57;7.28;;;;;;;1.82;70.28;103352.13;4991019;28;20489;-58
2023/01/25 05:52:37;;;;;;;11.18;6.25;;;;;;;1.83;70.27;103348.69;4989080;28;20489;-59
2023/01/25 05:55:02;;;;;;;12.45;5.78;;;;;;;1.85;70.04;103347.84;4995386;28;20084;-56
2023/01/25 05:57:28;;;;;;;11.85;6.75;;;;;;;1.85;70.43;103345.25;4992719;28;20409;-61
2023/01/25 05:59:53;;;;;;;9.75;5.60;;;;;;;1.85;70.48;103347.84;4993254;28;20034;-59
2023/01/25 06:02:19;;;;;;;12.73;6.97;;;;;;;1.83;70.08;103340.00;4996876;28;20030;-56
2023/01/25 06:04:44;;;;;;;12.43;7.20;;;;;;;1.82;70.15;103343.44;4990285;28;20038;-59
2023/01/25 06:07:10;;;;;;;12.93;6.47;;;;;;;1.83;70.60;103346.09;4989983;28;20161;-56
2023/01/25 06:09:35;;;;;;;11.90;6.10;;;;;;;1.80;70.55;103335.63;4982336;28;20054;-56
2023/01/25 06:12:02;;;;;;;10.00;5.82;;;;;;;1.77;70.24;103339.91;4980034;28;20109;-55
2023/01/25 06:14:28;;;;;;;13.77;6.30;;;;;;;1.76;70.69;103338.16;4988278;28;20512;-59
2023/01/25 06:16:53;;;;;;;13.18;6.82;;;;;;;1.75;70.58;103339.84;5000577;28;20537;-56
2023/01/25 06:19:18;;;;;;;13.00;7.03;;;;;;;1.78;70.68;103334.72;4988902;28;20030;-58
2023/01/25 06:21:44;;;;;;;12.07;6.35;;;;;;;1.78;70.26;103332.13;4991376;28;20026;-55
2023/01/25 06:24:10;;;;;;;12.40;6.22;;;;;;;1.80;70.24;103327.84;4991169;28;20037;-57
2023/01/25 06:26:35;;;;;;;14.32;6.57;;;;;;;1.80;70.51;103327.84;4986348;28;20122;-58
2023/01/25 06:29:00;;;;;;;12.68;7.15;;;;;;;1.82;70.22;103326.16;4988176;28;20072;-57
2023/01/25 06:31:26;;;;;;;11.27;6.50;;;;;;;1.84;70.28;103331.38;4990440;28;20038;-58
2023/01/25 06:33:52;;;;;;;13.95;6.15;;;;;;;1.83;70.05;103333.13;4995344;28;20026;-56
2023/01/25 06:36:20;;;;;;;12.57;6.18;;;;;;;1.84;70.35;103323.59;4990754;28;20037;-59
2023/01/25 06:38:49;;;;;;;16.40;8.18;;;;;;;1.81;70.35;103332.19;4987008;28;20478;-59
2023/01/25 06:41:15;;;;;;;10.95;4.88;;;;;;;1.76;70.61;103328.63;4985878;28;20072;-55
2023/01/25 06:43:41;;;;;;;18.63;9.32;;;;;;;1.77;70.40;103332.97;4988960;28;20133;-55
2023/01/25 06:46:10;;;;;;;16.13;8.73;;;;;;;1.80;70.23;103321.78;4986184;28;20041;-58
2023/01/25 06:48:36;;;;;;;14.68;8.35;;;;;;;1.77;70.59;103330.38;4985753;28;20026;-57
2023/01/25 06:51:05;;;;;;;13.98;6.78;;;;;;;1.76;70.56;103328.63;4982172;28;20032;-58
2023/01/25 06:53:32;;;;;;;11.27;6.55;;;;;;;1.72;70.30;103326.84;4985006;28;20112;-57
2023/01/25 06:56:00;;;;;;;15.23;8.05;;;;;;;1.68;70.49;103320.69;4994526;28;20041;-59
2023/01/25 06:58:26;;;;;;;17.30;8.70;;;;;;;1.67;70.68;103315.47;4987223;28;20045;-55
2023/01/25 07:00:52;;;;;;;15.35;8.30;;;;;;;1.70;70.44;103315.53;4991593;28;20104;-60
2023/01/25 07:03:17;;;;;;;17.17;9.43;;;;;;;1.71;70.43;103309.50;4989683;28;20161;-57
2023/01/25 07:05:43;;;;;;;20.65;10.65;;;;;;;1.71;70.29;103311.19;4990997;28;20022;-56
2023/01/25 07:08:08;;;;;;;19.63;10.48;;;;;;;1.70;70.34;103307.75;4995484;28;21032;-57
2023/01/25 07:10:34;;;;;;;18.45;9.93;;;;;;;1.67;70.99;103310.28;4991377;28;20081;-54
2023/01/25 07:12:59;;;;;;;18.15;9.50;;;;;;;1.71;70.87;103309.50;4991023;28;20438;-57
2023/01/25 07:15:25;;;;;;;23.88;10.57;;;;;;;1.73;70.58;103305.22;4992025;28;20543;-58
2023/01/25 07:17:50;;;;;;;20.52;9.88;;;;;;;1.75;70.88;103305.25;4993991;28;20049;-60
2023/01/25 07:20:16;;;;;;;23.05;11.80;;;;;;;1.77;70.85;103303.56;4992523;28;20038;-57
2023/01/25 07:22:41;;;;;;;21.35;12.00;;;;;;;1.77;70.73;103294.03;4991081;28;20034;-57
2023/01/25 07:25:07;;;;;;;25.38;12.98;;;;;;;1.78;70.55;103293.19;4986362;28;20034;-59
2023/01/25 07:27:33;;;;;;;26.10;12.80;;;;;;;1.82;70.39;103297.59;4997134;28;20022;-60
2023/01/25 07:29:59;;;;;;;21.08;12.05;;;;;;;1.79;70.65;103292.34;4997801;28;20026;-60
2023/01/25 07:32:25;;;;;;;26.80;13.70;;;;;;;1.81;70.57;103285.47;4992586;28;20080;-59
2023/01/25 07:34:50;;;;;;;26.73;12.52;;;;;;;1.83;70.50;103288.09;4990424;28;20093;-55
2023/01/25 07:37:16;;;;;;;21.63;12.07;;;;;;;1.86;70.45;103282.97;5002989;28;20034;-57
2023/01/25 07:39:47;;;;;;;26.85;14.60;;;;;;;1.89;70.29;103279.56;5002224;28;20030;-57
2023/01/25 07:42:13;;;;;;;23.73;12.25;;;;;;;1.92;70.55;103282.19;4992640;28;20034;-55
2023/01/25 07:44:38;;;;;;;25.05;12.48;;;;;;;1.90;70.68;103284.78;4988938;28;20082;-62
2023/01/25 07:47:04;;;;;;;26.52;13.13;;;;;;;1.88;70.29;103259.63;4984747;28;20090;-59
2023/01/25 07:49:29;;;;;;;26.42;13.85;;;;;;;1.86;70.83;103264.78;4994931;28;20031;-55
2023/01/25 07:51:54;;;;;;;26.38;12.98;;;;;;;1.86;70.50;103259.59;4997602;28;20081;-56
2023/01/25 07:54:20;;;;;;;27.52;14.05;;;;;;;1.87;70.47;103268.28;4995444;28;20084;-59
2023/01/25 07:56:45;;;;;;;21.80;11.75;;;;;;;1.83;70.54;103252.63;4992356;28;20030;-61
2023/01/25 07:59:11;;;;;;;18.23;9.63;;;;;;;1.83;70.54;103252.63;4992131;28;20033;-58
2023/01/25 08:01:38;;;;;;;18.92;8.38;;;;;;;1.83;70.69;103249.13;5018936;28;20027;-55
2023/01/25 08:04:04;;;;;;;19.65;8.52;;;;;;;1.83;70.75;103252.63;4991369;28;20262;-55
2023/01/25 08:06:37;;;;;;;21.02;9.15;;;;;;;1.86;70.46;103245.75;4998528;28;20055;-55
2023/01/25 08:09:11;;;;;;;18.08;10.20;;;;;;;1.86;70.34;103237.97;4993978;28;20062;-56
2023/01/25 08:11:36;;;;;;;25.17;12.93;;;;;;;1.90;70.50;103234.53;4996188;28;20493;-58
2023/01/25 08:14:02;;;;;;;26.80;13.80;;;;;;;1.92;70.29;103230.25;4994103;28;20061;-60
2023/01/25 08:16:29;;;;;;;24.40;12.20;;;;;;;1.97;70.37;103233.81;4992070;28;20053;-56
2023/01/25 08:18:57;;;;;;;24.92;12.18;;;;;;;2.00;70.40;103233.91;4994026;28;20030;-59
2023/01/25 08:21:29;;;;;;;27.05;14.52;;;;;;;2.01;70.17;103234.75;4992256;28;20438;-56
2023/01/25 08:23:59;;;;;;;26.25;14.45;;;;;;;2.02;70.21;103232.19;4993201;28;20062;-55
2023/01/25 08:26:25;;;;;;;29.52;15.73;;;;;;;2.03;70.27;103236.56;4999360;28;20084;-57
2023/01/25 08:28:52;;;;;;;25.80;13.07;;;;;;;2.02;70.07;103232.19;4994191;28;20437;-57
2023/01/25 08:31:21;;;;;;;27.10;15.32;;;;;;;2.08;70.16;103232.28;4997403;28;20525;-56
2023/01/25 08:33:47;;;;;;;32.17;17.85;;;;;;;2.08;70.06;103226.25;4991273;28;20550;-58
2023/01/25 08:36:14;;;;;;;28.83;15.65;;;;;;;2.13;70.19;103228.06;4990002;28;20039;-61
2023/01/25 08:38:40;;;;;;;23.33;12.48;;;;;;;2.13;70.00;103227.16;4991779;28;20033;-56
2023/01/25 08:41:10;;;;;;;23.58;12.55;;;;;;;2.13;70.12;103222.88;4993484;28;20034;-56
2023/01/25 08:43:37;;;;;;;25.77;12.10;;;;;;;2.11;69.63;103227.16;4992864;28;20023;-55
2023/01/25 08:46:02;;;;;;;20.17;11.20;;;;;;;2.05;69.85;103231.38;4992893;28;20060;-55
2023/01/25 08:48:28;;;;;;;21.00;11.93;;;;;;;1.96;69.88;103225.19;4994004;28;20022;-61
2023/01/25 08:50:53;;;;;;;22.90;12.75;;;;;;;1.97;70.05;103233.81;4993815;28;20490;-57
2023/01/25 08:53:19;;;;;;;27.42;14.32;;;;;;;2.02;70.08;103223.53;4989003;28;20494;-60
2023/01/25 08:55:45;;;;;;;34.63;16.48;;;;;;;2.09;69.92;103228.84;4991765;28;20702;-58
2023/01/25 08:58:12;;;;;;;27.80;14.13;;;;;;;2.10;69.63;103225.41;4989720;28;20096;-59
2023/01/25 09:00:39;;;;;;;22.80;12.23;;;;;;;2.09;69.85;103218.47;4992592;28;20050;-61
2023/01/25 09:03:05;;;;;;;37.13;16.92;;;;;;;2.11;69.71;103223.69;4990984;28;20081;-61
2023/01/25 09:05:33;;;;;;;29.63;15.20;;;;;;;2.09;69.74;103228.00;4992981;28;20110;-61
2023/01/25 09:07:59;;;;;;;26.85;14.68;;;;;;;2.08;69.80;103237.50;4989297;28;20027;-60
2023/01/25 09:10:24;;;;;;;21.35;11.50;;;;;;;2.05;69.62;103226.19;4992610;28;20105;-61
2023/01/25 09:12:49;;;;;;;21.90;10.60;;;;;;;2.04;69.73;103235.69;4989608;28;20034;-58
2023/01/25 09:15:15;;;;;;;24.65;12.27;;;;;;;2.06;70.03;103236.59;4987932;28;20038;-59
2023/01/25 09:17:40;;;;;;;25.45;13.95;;;;;;;2.12;69.90;103223.72;4985406;28;20037;-59
2023/01/25 09:20:07;;;;;;;27.52;14.80;;;;;;;2.16;69.74;103228.97;4993828;28;20514;-62
2023/01/25 09:22:32;;;;;;;32.03;15.93;;;;;;;2.19;69.72;103231.63;4983708;28;20560;-60
2023/01/25 09:24:57;;;;;;;31.17;16.48;;;;;;;2.21;69.69;103229.91;4990166;28;20057;-57
2023/01/25 09:27:23;;;;;;;37.53;18.05;;;;;;;2.19;69.71;103227.28;4985946;28;20043;-61
2023/01/25 09:29:48;;;;;;;22.25;12.52;;;;;;;2.20;69.63;103209.97;5002225;28;20041;-62
2023/01/25 09:32:14;;;;;;;30.00;15.73;;;;;;;2.21;69.93;103212.63;4999234;28;20037;-61
2023/01/25 09:34:39;;;;;;;34.00;15.88;;;;;;;2.23;70.21;103208.31;4986815;28;20030;-57
2023/01/25 09:37:05;;;;;;;20.73;11.18;;;;;;;2.25;69.92;103210.94;4990987;28;20103;-60
2023/01/25 09:39:30;;;;;;;21.83;11.07;;;;;;;2.28;69.95;103209.25;4995039;28;20085;-62
2023/01/25 09:42:24;;;;;;;28.58;13.98;;;;;;;2.34;69.99;103213.69;4995063;28;20038;-59
2023/01/25 09:45:19;;;;;;;22.30;11.20;;;;;;;2.34;69.39;103203.31;4988775;28;20022;-61
2023/01/25 09:47:52;;;;;;;20.90;11.80;;;;;;;2.27;69.64;103206.63;4989781;28;20022;-58
2023/01/25 09:50:24;;;;;;;18.45;10.07;;;;;;;2.25;69.82;103201.44;4993290;28;20026;-60
2023/01/25 09:53:17;;;;;;;17.15;9.65;;;;;;;2.27;69.59;103201.44;4991991;28;20053;-60
2023/01/25 09:55:44;;;;;;;21.52;10.48;;;;;;;2.27;69.66;103196.25;4980970;28;20440;-59
2023/01/25 09:58:20;;;;;;;21.23;11.02;;;;;;;2.22;69.60;103188.38;4987084;28;20034;-62
2023/01/25 10:00:51;;;;;;;20.05;10.23;;;;;;;2.26;69.84;103186.69;4990356;28;20493;-61
2023/01/25 10:03:37;;;;;;;23.33;10.55;;;;;;;2.24;69.56;103180.59;4989956;28;20031;-62
2023/01/25 10:06:03;;;;;;;25.23;9.82;;;;;;;2.23;69.64;103174.56;4989414;28;20025;-60
2023/01/25 10:09:21;;;;;;;19.30;11.07;;;;;;;2.24;69.63;103165.00;4989149;28;20022;-60
2023/01/25 10:11:46;;;;;;;24.80;11.20;;;;;;;2.23;69.66;103158.06;4919337;28;20490;-57
2023/01/25 10:14:15;;;;;;;26.73;12.57;;;;;;;2.26;69.63;103158.13;4992867;28;20038;-62
2023/01/25 10:16:40;;;;;;;26.48;14.10;;;;;;;2.25;69.38;103156.38;4988179;28;20153;-58
2023/01/25 10:19:21;;;;;;;24.02;11.40;;;;;;;2.29;69.66;103159.03;4986123;28;20038;-63
2023/01/25 10:21:53;;;;;;;21.83;11.38;;;;;;;2.34;69.51;103155.66;4991981;28;20014;-60
2023/01/25 10:24:50;;;;;;;21.05;10.55;;;;;;;2.31;69.55;103153.88;4990029;28;20057;-58
2023/01/25 10:27:21;;;;;;;20.52;10.73;;;;;;;2.33;69.69;103144.41;4994712;28;20486;-61
2023/01/25 10:29:48;;;;;;;20.50;11.10;;;;;;;2.40;69.69;103145.38;4993561;28;20030;-58
2023/01/25 10:32:18;;;;;;;21.08;11.50;;;;;;;2.47;69.43;103135.94;4987636;28;20418;-58
2023/01/25 10:34:56;;;;;;;25.85;11.98;;;;;;;2.52;69.33;103129.06;4990720;28;20569;-57
2023/01/25 10:37:26;;;;;;;25.17;12.48;;;;;;;2.55;69.12;103124.78;4986893;28;20042;-57
2023/01/25 10:40:13;;;;;;;22.70;10.32;;;;;;;2.56;69.35;103128.25;4986182;28;20067;-61
2023/01/25 10:43:02;;;;;;;21.90;10.98;;;;;;;2.61;69.41;103112.72;4988162;28;20156;-61
2023/01/25 10:45:28;;;;;;;23.10;11.20;;;;;;;2.62;68.78;103107.56;4989536;28;20056;-61
2023/01/25 10:48:06;;;;;;;25.75;11.38;;;;;;;2.59;69.03;103105.75;4990735;28;20445;-60
2023/01/25 10:50:40;;;;;;;24.45;10.98;;;;;;;2.55;69.15;103108.31;4990679;28;20113;-60
2023/01/25 10:53:26;;;;;;;20.88;10.65;;;;;;;2.55;68.91;103097.91;4981516;28;20034;-59
2023/01/25 10:56:10;;;;;;;20.73;10.98;;;;;;;2.57;68.97;103096.22;4986851;28;20117;-60
2023/01/25 10:58:47;;;;;;;25.65;11.05;;;;;;;2.55;69.18;103092.72;4987660;28;20039;-61
2023/01/25 11:01:35;;;;;;;25.00;11.52;;;;;;;2.50;69.12;103084.84;4988905;28;20034;-60
2023/01/25 11:04:01;;;;;;;25.75;12.05;;;;;;;2.48;69.46;103083.97;4981316;28;20054;-58
2023/01/25 11:06:36;;;;;;;23.77;11.30;;;;;;;2.52;69.55;103082.25;4994125;28;20062;-55
2023/01/25 11:09:21;;;;;;;20.00;10.30;;;;;;;2.54;69.45;103077.97;4989242;28;20157;-61
2023/01/25 11:11:59;;;;;;;21.35;10.70;;;;;;;2.52;69.50;103074.47;4986343;28;20044;-57
2023/01/25 11:14:26;;;;;;;14.25;7.10;;;;;;;2.51;69.88;103068.41;4991287;28;20042;-58
2023/01/25 11:16:54;;;;;;;20.88;11.40;;;;;;;2.53;69.62;103061.50;4994042;28;20033;-58
2023/01/25 11:19:33;;;;;;;24.35;11.38;;;;;;;2.57;69.55;103054.63;4979439;28;20027;-57
2023/01/25 11:22:00;;;;;;;25.42;12.07;;;;;;;2.55;69.56;103045.94;4985709;28;20080;-57
2023/01/25 11:24:35;;;;;;;30.35;13.10;;;;;;;2.51;69.67;103046.72;4985963;28;20041;-59
2023/01/25 11:27:33;;;;;;;23.23;12.35;;;;;;;2.49;69.76;103043.25;4992245;28;20046;-56
2023/01/25 11:30:06;;;;;;;26.17;12.30;;;;;;;2.53;69.63;103037.22;4968079;28;20041;-60